sensor_id;sensor_type;location;lat;lon;timestamp;P1;durP1;ratioP1;P2;durP2;ratioP2
13731;SDS011;6937;56.096;12.664;2024-02-16T00:00:23;142.02;;;16.90;;
13731;SDS011;6937;56.096;12.664;2024-02-16T00:02:50;155.93;;;19.55;;
13731;SDS011;6937;56.096;12.664;2024-02-16T00:05:16;147.55;;;19.45;;
13731;SDS011;6937;56.096;12.664;2024-02-16T00:07:41;96.25;;;13.48;;
13731;SDS011;6937;56.096;12.664;2024-02-16T00:10:07;122.55;;;16.10;;
13731;SDS011;6937;56.096;12.664;2024-02-16T00:12:34;106.68;;;14.77;;
13731;SDS011;6937;56.096;12.664;2024-02-16T00:14:59;66.30;;;13.13;;
13731;SDS011;6937;56.096;12.664;2024-02-16T00:17:25;124.25;;;17.95;;
13731;SDS011;6937;56.096;12.664;2024-02-16T00:19:54;141.88;;;17.52;;
13731;SDS011;6937;56.096;12.664;2024-02-16T00:22:20;149.80;;;18.80;;
13731;SDS011;6937;56.096;12.664;2024-02-16T00:24:46;139.18;;;17.83;;
13731;SDS011;6937;56.096;12.664;2024-02-16T00:27:11;153.63;;;20.23;;
13731;SDS011;6937;56.096;12.664;2024-02-16T00:29:37;167.23;;;20.55;;
13731;SDS011;6937;56.096;12.664;2024-02-16T00:32:03;190.77;;;20.85;;
13731;SDS011;6937;56.096;12.664;2024-02-16T00:34:31;148.73;;;21.27;;
13731;SDS011;6937;56.096;12.664;2024-02-16T00:36:57;126.30;;;17.52;;
13731;SDS011;6937;56.096;12.664;2024-02-16T00:39:22;124.55;;;15.18;;
13731;SDS011;6937;56.096;12.664;2024-02-16T00:41:48;187.45;;;19.92;;
13731;SDS011;6937;56.096;12.664;2024-02-16T00:44:13;170.63;;;19.52;;
13731;SDS011;6937;56.096;12.664;2024-02-16T00:46:38;138.88;;;18.08;;
13731;SDS011;6937;56.096;12.664;2024-02-16T00:49:04;93.68;;;15.30;;
13731;SDS011;6937;56.096;12.664;2024-02-16T00:51:29;137.07;;;16.45;;
13731;SDS011;6937;56.096;12.664;2024-02-16T00:53:55;139.88;;;18.35;;
13731;SDS011;6937;56.096;12.664;2024-02-16T00:56:20;165.25;;;22.95;;
13731;SDS011;6937;56.096;12.664;2024-02-16T00:58:46;172.27;;;20.98;;
13731;SDS011;6937;56.096;12.664;2024-02-16T01:01:11;139.68;;;18.08;;
13731;SDS011;6937;56.096;12.664;2024-02-16T01:03:40;171.43;;;20.85;;
13731;SDS011;6937;56.096;12.664;2024-02-16T01:06:05;144.85;;;18.50;;
13731;SDS011;6937;56.096;12.664;2024-02-16T01:08:31;156.48;;;21.73;;
13731;SDS011;6937;56.096;12.664;2024-02-16T01:10:57;195.35;;;23.60;;
13731;SDS011;6937;56.096;12.664;2024-02-16T01:13:23;153.23;;;22.20;;
13731;SDS011;6937;56.096;12.664;2024-02-16T01:15:49;173.85;;;23.15;;
13731;SDS011;6937;56.096;12.664;2024-02-16T01:18:14;184.52;;;23.17;;
13731;SDS011;6937;56.096;12.664;2024-02-16T01:20:40;140.00;;;19.67;;
13731;SDS011;6937;56.096;12.664;2024-02-16T01:23:06;189.20;;;24.90;;
13731;SDS011;6937;56.096;12.664;2024-02-16T01:25:31;203.68;;;22.67;;
13731;SDS011;6937;56.096;12.664;2024-02-16T01:27:57;150.30;;;18.00;;
13731;SDS011;6937;56.096;12.664;2024-02-16T01:30:22;171.07;;;20.60;;
13731;SDS011;6937;56.096;12.664;2024-02-16T01:32:48;172.48;;;23.15;;
13731;SDS011;6937;56.096;12.664;2024-02-16T01:35:13;204.05;;;25.45;;
13731;SDS011;6937;56.096;12.664;2024-02-16T01:37:42;148.50;;;20.55;;
13731;SDS011;6937;56.096;12.664;2024-02-16T01:40:08;156.77;;;23.65;;
13731;SDS011;6937;56.096;12.664;2024-02-16T01:42:38;173.32;;;27.08;;
13731;SDS011;6937;56.096;12.664;2024-02-16T01:45:07;167.52;;;23.17;;
13731;SDS011;6937;56.096;12.664;2024-02-16T01:47:34;120.65;;;21.80;;
13731;SDS011;6937;56.096;12.664;2024-02-16T01:50:01;123.55;;;23.17;;
13731;SDS011;6937;56.096;12.664;2024-02-16T01:52:27;116.78;;;23.35;;
13731;SDS011;6937;56.096;12.664;2024-02-16T01:54:53;127.10;;;23.58;;
13731;SDS011;6937;56.096;12.664;2024-02-16T01:57:18;114.03;;;22.13;;
13731;SDS011;6937;56.096;12.664;2024-02-16T01:59:44;105.68;;;20.52;;
13731;SDS011;6937;56.096;12.664;2024-02-16T02:02:10;109.50;;;21.65;;
13731;SDS011;6937;56.096;12.664;2024-02-16T02:04:36;108.60;;;22.92;;
13731;SDS011;6937;56.096;12.664;2024-02-16T02:07:10;88.20;;;20.65;;
13731;SDS011;6937;56.096;12.664;2024-02-16T02:09:37;92.13;;;18.73;;
13731;SDS011;6937;56.096;12.664;2024-02-16T02:12:03;71.72;;;18.75;;
13731;SDS011;6937;56.096;12.664;2024-02-16T02:14:28;74.30;;;18.90;;
13731;SDS011;6937;56.096;12.664;2024-02-16T02:16:53;44.50;;;15.15;;
13731;SDS011;6937;56.096;12.664;2024-02-16T02:19:19;91.97;;;21.77;;
13731;SDS011;6937;56.096;12.664;2024-02-16T02:21:44;134.07;;;24.17;;
13731;SDS011;6937;56.096;12.664;2024-02-16T02:24:10;93.47;;;20.55;;
13731;SDS011;6937;56.096;12.664;2024-02-16T02:26:35;114.90;;;25.05;;
13731;SDS011;6937;56.096;12.664;2024-02-16T02:29:01;81.38;;;21.70;;
13731;SDS011;6937;56.096;12.664;2024-02-16T02:31:26;111.47;;;25.27;;
13731;SDS011;6937;56.096;12.664;2024-02-16T02:33:51;135.52;;;25.73;;
13731;SDS011;6937;56.096;12.664;2024-02-16T02:36:17;142.35;;;23.27;;
13731;SDS011;6937;56.096;12.664;2024-02-16T02:38:42;229.60;;;28.95;;
13731;SDS011;6937;56.096;12.664;2024-02-16T02:41:09;145.18;;;20.52;;
13731;SDS011;6937;56.096;12.664;2024-02-16T02:43:34;266.83;;;30.55;;
13731;SDS011;6937;56.096;12.664;2024-02-16T02:46:00;233.80;;;26.13;;
13731;SDS011;6937;56.096;12.664;2024-02-16T02:48:25;176.68;;;20.38;;
13731;SDS011;6937;56.096;12.664;2024-02-16T02:50:50;175.77;;;22.25;;
13731;SDS011;6937;56.096;12.664;2024-02-16T02:53:16;156.15;;;22.65;;
13731;SDS011;6937;56.096;12.664;2024-02-16T02:55:43;168.50;;;25.73;;
13731;SDS011;6937;56.096;12.664;2024-02-16T02:58:08;141.65;;;23.77;;
13731;SDS011;6937;56.096;12.664;2024-02-16T03:00:34;157.80;;;28.20;;
13731;SDS011;6937;56.096;12.664;2024-02-16T03:03:00;170.60;;;25.85;;
13731;SDS011;6937;56.096;12.664;2024-02-16T03:05:26;259.60;;;34.03;;
13731;SDS011;6937;56.096;12.664;2024-02-16T03:07:52;209.30;;;28.83;;
13731;SDS011;6937;56.096;12.664;2024-02-16T03:10:18;244.30;;;32.17;;
13731;SDS011;6937;56.096;12.664;2024-02-16T03:12:47;243.23;;;32.47;;
13731;SDS011;6937;56.096;12.664;2024-02-16T03:15:14;239.55;;;29.10;;
13731;SDS011;6937;56.096;12.664;2024-02-16T03:17:40;222.07;;;26.92;;
13731;SDS011;6937;56.096;12.664;2024-02-16T03:20:06;184.77;;;27.02;;
13731;SDS011;6937;56.096;12.664;2024-02-16T03:22:32;202.02;;;28.95;;
13731;SDS011;6937;56.096;12.664;2024-02-16T03:24:58;197.93;;;25.95;;
13731;SDS011;6937;56.096;12.664;2024-02-16T03:27:23;217.85;;;27.23;;
13731;SDS011;6937;56.096;12.664;2024-02-16T03:29:49;213.30;;;28.27;;
13731;SDS011;6937;56.096;12.664;2024-02-16T03:32:14;180.52;;;25.20;;
13731;SDS011;6937;56.096;12.664;2024-02-16T03:34:39;181.05;;;26.80;;
13731;SDS011;6937;56.096;12.664;2024-02-16T03:37:05;193.98;;;28.73;;
13731;SDS011;6937;56.096;12.664;2024-02-16T03:39:30;156.45;;;23.38;;
13731;SDS011;6937;56.096;12.664;2024-02-16T03:41:55;152.10;;;25.58;;
13731;SDS011;6937;56.096;12.664;2024-02-16T03:44:21;176.77;;;30.55;;
13731;SDS011;6937;56.096;12.664;2024-02-16T03:46:46;137.32;;;25.33;;
13731;SDS011;6937;56.096;12.664;2024-02-16T03:49:12;147.77;;;27.00;;
13731;SDS011;6937;56.096;12.664;2024-02-16T03:51:37;143.65;;;26.58;;
13731;SDS011;6937;56.096;12.664;2024-02-16T03:54:03;155.77;;;25.63;;
13731;SDS011;6937;56.096;12.664;2024-02-16T03:56:29;156.75;;;26.35;;
13731;SDS011;6937;56.096;12.664;2024-02-16T03:58:55;197.65;;;29.48;;
13731;SDS011;6937;56.096;12.664;2024-02-16T04:01:21;182.48;;;28.33;;
13731;SDS011;6937;56.096;12.664;2024-02-16T04:03:47;153.85;;;26.38;;
13731;SDS011;6937;56.096;12.664;2024-02-16T04:06:12;148.68;;;25.80;;
13731;SDS011;6937;56.096;12.664;2024-02-16T04:08:38;139.93;;;24.27;;
13731;SDS011;6937;56.096;12.664;2024-02-16T04:11:04;164.13;;;26.33;;
13731;SDS011;6937;56.096;12.664;2024-02-16T04:13:29;166.73;;;29.17;;
13731;SDS011;6937;56.096;12.664;2024-02-16T04:15:55;126.82;;;26.13;;
13731;SDS011;6937;56.096;12.664;2024-02-16T04:18:20;142.48;;;24.67;;
13731;SDS011;6937;56.096;12.664;2024-02-16T04:20:46;114.63;;;23.42;;
13731;SDS011;6937;56.096;12.664;2024-02-16T04:23:11;165.63;;;25.95;;
13731;SDS011;6937;56.096;12.664;2024-02-16T04:25:36;148.10;;;24.08;;
13731;SDS011;6937;56.096;12.664;2024-02-16T04:28:02;149.75;;;27.10;;
13731;SDS011;6937;56.096;12.664;2024-02-16T04:30:27;180.90;;;26.42;;
13731;SDS011;6937;56.096;12.664;2024-02-16T04:32:53;214.93;;;28.27;;
13731;SDS011;6937;56.096;12.664;2024-02-16T04:35:18;214.95;;;29.27;;
13731;SDS011;6937;56.096;12.664;2024-02-16T04:37:44;215.43;;;28.10;;
13731;SDS011;6937;56.096;12.664;2024-02-16T04:40:09;229.38;;;32.45;;
13731;SDS011;6937;56.096;12.664;2024-02-16T04:42:37;207.25;;;29.13;;
13731;SDS011;6937;56.096;12.664;2024-02-16T04:45:03;177.10;;;30.02;;
13731;SDS011;6937;56.096;12.664;2024-02-16T04:47:29;204.23;;;32.20;;
13731;SDS011;6937;56.096;12.664;2024-02-16T04:49:54;179.43;;;30.73;;
13731;SDS011;6937;56.096;12.664;2024-02-16T04:52:19;218.90;;;30.98;;
13731;SDS011;6937;56.096;12.664;2024-02-16T04:54:45;197.07;;;29.67;;
13731;SDS011;6937;56.096;12.664;2024-02-16T04:57:10;195.63;;;31.83;;
13731;SDS011;6937;56.096;12.664;2024-02-16T04:59:35;157.40;;;30.77;;
13731;SDS011;6937;56.096;12.664;2024-02-16T05:02:01;190.98;;;36.10;;
13731;SDS011;6937;56.096;12.664;2024-02-16T05:04:28;106.03;;;30.55;;
13731;SDS011;6937;56.096;12.664;2024-02-16T05:06:54;147.50;;;36.00;;
13731;SDS011;6937;56.096;12.664;2024-02-16T05:09:22;166.77;;;40.08;;
13731;SDS011;6937;56.096;12.664;2024-02-16T05:11:49;117.90;;;32.88;;
13731;SDS011;6937;56.096;12.664;2024-02-16T05:14:16;88.30;;;31.88;;
13731;SDS011;6937;56.096;12.664;2024-02-16T05:16:44;147.00;;;38.38;;
13731;SDS011;6937;56.096;12.664;2024-02-16T05:19:10;142.20;;;36.72;;
13731;SDS011;6937;56.096;12.664;2024-02-16T05:21:36;97.28;;;33.58;;
13731;SDS011;6937;56.096;12.664;2024-02-16T05:24:01;121.43;;;35.05;;
13731;SDS011;6937;56.096;12.664;2024-02-16T05:26:27;109.05;;;33.75;;
13731;SDS011;6937;56.096;12.664;2024-02-16T05:28:53;185.52;;;39.17;;
13731;SDS011;6937;56.096;12.664;2024-02-16T05:31:19;171.13;;;41.20;;
13731;SDS011;6937;56.096;12.664;2024-02-16T05:33:46;130.98;;;37.80;;
13731;SDS011;6937;56.096;12.664;2024-02-16T05:36:16;107.90;;;37.78;;
13731;SDS011;6937;56.096;12.664;2024-02-16T05:38:48;130.30;;;41.05;;
13731;SDS011;6937;56.096;12.664;2024-02-16T05:41:15;102.78;;;38.75;;
13731;SDS011;6937;56.096;12.664;2024-02-16T05:43:42;90.32;;;37.45;;
13731;SDS011;6937;56.096;12.664;2024-02-16T05:46:12;102.90;;;39.45;;
13731;SDS011;6937;56.096;12.664;2024-02-16T05:48:41;104.22;;;40.45;;
13731;SDS011;6937;56.096;12.664;2024-02-16T05:51:06;94.78;;;39.00;;
13731;SDS011;6937;56.096;12.664;2024-02-16T05:53:32;100.90;;;40.45;;
13731;SDS011;6937;56.096;12.664;2024-02-16T05:55:58;80.60;;;37.40;;
13731;SDS011;6937;56.096;12.664;2024-02-16T05:58:24;87.18;;;38.72;;
13731;SDS011;6937;56.096;12.664;2024-02-16T06:00:50;75.85;;;35.22;;
13731;SDS011;6937;56.096;12.664;2024-02-16T06:03:16;86.53;;;37.40;;
13731;SDS011;6937;56.096;12.664;2024-02-16T06:05:41;88.80;;;37.85;;
13731;SDS011;6937;56.096;12.664;2024-02-16T06:08:09;83.72;;;36.60;;
13731;SDS011;6937;56.096;12.664;2024-02-16T06:10:35;76.50;;;37.97;;
13731;SDS011;6937;56.096;12.664;2024-02-16T06:13:00;79.90;;;38.20;;
13731;SDS011;6937;56.096;12.664;2024-02-16T06:15:26;75.38;;;37.17;;
13731;SDS011;6937;56.096;12.664;2024-02-16T06:17:51;70.80;;;36.42;;
13731;SDS011;6937;56.096;12.664;2024-02-16T06:20:17;71.07;;;35.92;;
13731;SDS011;6937;56.096;12.664;2024-02-16T06:22:43;66.60;;;34.38;;
13731;SDS011;6937;56.096;12.664;2024-02-16T06:25:08;59.05;;;34.20;;
13731;SDS011;6937;56.096;12.664;2024-02-16T06:27:34;59.83;;;34.75;;
13731;SDS011;6937;56.096;12.664;2024-02-16T06:30:00;58.63;;;34.33;;
13731;SDS011;6937;56.096;12.664;2024-02-16T06:32:26;51.75;;;31.50;;
13731;SDS011;6937;56.096;12.664;2024-02-16T06:34:53;50.80;;;31.67;;
13731;SDS011;6937;56.096;12.664;2024-02-16T06:37:19;46.72;;;30.55;;
13731;SDS011;6937;56.096;12.664;2024-02-16T06:39:44;49.25;;;30.83;;
13731;SDS011;6937;56.096;12.664;2024-02-16T06:42:10;47.75;;;30.65;;
13731;SDS011;6937;56.096;12.664;2024-02-16T06:44:38;47.40;;;31.35;;
13731;SDS011;6937;56.096;12.664;2024-02-16T06:47:05;44.38;;;29.92;;
13731;SDS011;6937;56.096;12.664;2024-02-16T06:49:31;41.17;;;29.60;;
13731;SDS011;6937;56.096;12.664;2024-02-16T06:51:56;41.13;;;29.02;;
13731;SDS011;6937;56.096;12.664;2024-02-16T06:54:22;42.42;;;29.27;;
13731;SDS011;6937;56.096;12.664;2024-02-16T06:56:49;39.95;;;27.85;;
13731;SDS011;6937;56.096;12.664;2024-02-16T06:59:16;32.72;;;25.98;;
13731;SDS011;6937;56.096;12.664;2024-02-16T07:01:41;35.10;;;27.02;;
13731;SDS011;6937;56.096;12.664;2024-02-16T07:04:07;37.22;;;25.98;;
13731;SDS011;6937;56.096;12.664;2024-02-16T07:06:32;37.45;;;27.38;;
13731;SDS011;6937;56.096;12.664;2024-02-16T07:08:58;35.30;;;25.17;;
13731;SDS011;6937;56.096;12.664;2024-02-16T07:11:23;34.38;;;25.25;;
13731;SDS011;6937;56.096;12.664;2024-02-16T07:13:48;32.40;;;25.15;;
13731;SDS011;6937;56.096;12.664;2024-02-16T07:16:14;34.10;;;24.77;;
13731;SDS011;6937;56.096;12.664;2024-02-16T07:18:39;33.05;;;25.13;;
13731;SDS011;6937;56.096;12.664;2024-02-16T07:21:05;32.58;;;23.70;;
13731;SDS011;6937;56.096;12.664;2024-02-16T07:23:30;27.98;;;21.75;;
13731;SDS011;6937;56.096;12.664;2024-02-16T07:25:55;29.20;;;21.02;;
13731;SDS011;6937;56.096;12.664;2024-02-16T07:28:22;29.98;;;22.90;;
13731;SDS011;6937;56.096;12.664;2024-02-16T07:30:48;29.08;;;21.92;;
13731;SDS011;6937;56.096;12.664;2024-02-16T07:33:14;32.40;;;24.27;;
13731;SDS011;6937;56.096;12.664;2024-02-16T07:35:39;31.40;;;23.60;;
13731;SDS011;6937;56.096;12.664;2024-02-16T07:38:05;30.05;;;23.55;;
13731;SDS011;6937;56.096;12.664;2024-02-16T07:40:30;37.58;;;25.10;;
13731;SDS011;6937;56.096;12.664;2024-02-16T07:42:56;35.58;;;25.58;;
13731;SDS011;6937;56.096;12.664;2024-02-16T07:45:22;34.47;;;24.92;;
13731;SDS011;6937;56.096;12.664;2024-02-16T07:47:47;35.45;;;25.48;;
13731;SDS011;6937;56.096;12.664;2024-02-16T07:50:13;35.30;;;25.17;;
13731;SDS011;6937;56.096;12.664;2024-02-16T07:52:39;35.83;;;26.23;;
13731;SDS011;6937;56.096;12.664;2024-02-16T07:55:08;32.72;;;25.55;;
13731;SDS011;6937;56.096;12.664;2024-02-16T07:57:34;37.28;;;25.77;;
13731;SDS011;6937;56.096;12.664;2024-02-16T08:00:00;36.60;;;26.20;;
13731;SDS011;6937;56.096;12.664;2024-02-16T08:02:25;32.85;;;25.73;;
13731;SDS011;6937;56.096;12.664;2024-02-16T08:04:51;35.03;;;26.55;;
13731;SDS011;6937;56.096;12.664;2024-02-16T08:07:16;34.85;;;25.10;;
13731;SDS011;6937;56.096;12.664;2024-02-16T08:09:45;27.35;;;22.30;;
13731;SDS011;6937;56.096;12.664;2024-02-16T08:12:11;27.20;;;20.02;;
13731;SDS011;6937;56.096;12.664;2024-02-16T08:14:39;24.52;;;20.15;;
13731;SDS011;6937;56.096;12.664;2024-02-16T08:17:06;25.60;;;19.90;;
13731;SDS011;6937;56.096;12.664;2024-02-16T08:19:36;24.30;;;19.27;;
13731;SDS011;6937;56.096;12.664;2024-02-16T08:22:02;21.70;;;18.60;;
13731;SDS011;6937;56.096;12.664;2024-02-16T08:24:31;24.25;;;19.55;;
13731;SDS011;6937;56.096;12.664;2024-02-16T08:26:57;23.30;;;17.92;;
13731;SDS011;6937;56.096;12.664;2024-02-16T08:29:23;21.40;;;17.77;;
13731;SDS011;6937;56.096;12.664;2024-02-16T08:31:51;20.08;;;17.88;;
13731;SDS011;6937;56.096;12.664;2024-02-16T08:34:17;22.05;;;17.42;;
13731;SDS011;6937;56.096;12.664;2024-02-16T08:36:49;19.13;;;17.05;;
13731;SDS011;6937;56.096;12.664;2024-02-16T08:39:15;21.65;;;17.50;;
13731;SDS011;6937;56.096;12.664;2024-02-16T08:41:41;19.40;;;16.23;;
13731;SDS011;6937;56.096;12.664;2024-02-16T08:44:09;20.00;;;16.58;;
13731;SDS011;6937;56.096;12.664;2024-02-16T08:46:35;18.92;;;16.55;;
13731;SDS011;6937;56.096;12.664;2024-02-16T08:49:01;20.05;;;15.73;;
13731;SDS011;6937;56.096;12.664;2024-02-16T08:51:28;17.95;;;15.30;;
13731;SDS011;6937;56.096;12.664;2024-02-16T08:53:54;15.82;;;14.07;;
13731;SDS011;6937;56.096;12.664;2024-02-16T08:56:19;18.08;;;14.18;;
13731;SDS011;6937;56.096;12.664;2024-02-16T08:58:45;16.00;;;14.30;;
13731;SDS011;6937;56.096;12.664;2024-02-16T09:01:10;16.85;;;14.40;;
13731;SDS011;6937;56.096;12.664;2024-02-16T09:03:36;15.50;;;13.90;;
13731;SDS011;6937;56.096;12.664;2024-02-16T09:06:04;18.40;;;14.88;;
13731;SDS011;6937;56.096;12.664;2024-02-16T09:08:29;17.52;;;14.25;;
13731;SDS011;6937;56.096;12.664;2024-02-16T09:11:00;15.27;;;13.57;;
13731;SDS011;6937;56.096;12.664;2024-02-16T09:13:33;15.10;;;13.50;;
13731;SDS011;6937;56.096;12.664;2024-02-16T09:16:01;15.02;;;13.50;;
13731;SDS011;6937;56.096;12.664;2024-02-16T09:18:28;15.93;;;13.65;;
13731;SDS011;6937;56.096;12.664;2024-02-16T09:20:53;15.02;;;13.45;;
13731;SDS011;6937;56.096;12.664;2024-02-16T09:23:19;16.38;;;13.82;;
13731;SDS011;6937;56.096;12.664;2024-02-16T09:25:44;15.32;;;13.70;;
13731;SDS011;6937;56.096;12.664;2024-02-16T09:28:11;16.85;;;13.18;;
13731;SDS011;6937;56.096;12.664;2024-02-16T09:30:37;16.95;;;13.93;;
13731;SDS011;6937;56.096;12.664;2024-02-16T09:33:03;15.13;;;13.52;;
13731;SDS011;6937;56.096;12.664;2024-02-16T09:35:28;15.98;;;12.88;;
13731;SDS011;6937;56.096;12.664;2024-02-16T09:37:54;14.48;;;12.88;;
13731;SDS011;6937;56.096;12.664;2024-02-16T09:40:19;15.50;;;13.18;;
13731;SDS011;6937;56.096;12.664;2024-02-16T09:42:47;14.73;;;13.30;;
13731;SDS011;6937;56.096;12.664;2024-02-16T09:45:16;13.70;;;12.27;;
13731;SDS011;6937;56.096;12.664;2024-02-16T09:47:42;13.82;;;12.40;;
13731;SDS011;6937;56.096;12.664;2024-02-16T09:50:10;16.98;;;14.05;;
13731;SDS011;6937;56.096;12.664;2024-02-16T09:52:35;20.42;;;13.18;;
13731;SDS011;6937;56.096;12.664;2024-02-16T09:55:01;16.95;;;13.75;;
13731;SDS011;6937;56.096;12.664;2024-02-16T09:57:27;16.90;;;14.82;;
13731;SDS011;6937;56.096;12.664;2024-02-16T09:59:52;17.13;;;14.40;;
13731;SDS011;6937;56.096;12.664;2024-02-16T10:02:17;16.27;;;14.57;;
13731;SDS011;6937;56.096;12.664;2024-02-16T10:04:43;16.00;;;14.30;;
13731;SDS011;6937;56.096;12.664;2024-02-16T10:07:08;16.27;;;14.35;;
13731;SDS011;6937;56.096;12.664;2024-02-16T10:09:34;18.85;;;15.27;;
13731;SDS011;6937;56.096;12.664;2024-02-16T10:11:59;16.98;;;14.55;;
13731;SDS011;6937;56.096;12.664;2024-02-16T10:14:25;17.52;;;15.35;;
13731;SDS011;6937;56.096;12.664;2024-02-16T10:17:00;17.42;;;15.20;;
13731;SDS011;6937;56.096;12.664;2024-02-16T10:19:28;18.02;;;14.90;;
13731;SDS011;6937;56.096;12.664;2024-02-16T10:22:04;16.50;;;14.73;;
13731;SDS011;6937;56.096;12.664;2024-02-16T10:24:32;16.10;;;14.43;;
13731;SDS011;6937;56.096;12.664;2024-02-16T10:26:57;19.27;;;15.27;;
13731;SDS011;6937;56.096;12.664;2024-02-16T10:29:23;16.70;;;14.73;;
13731;SDS011;6937;56.096;12.664;2024-02-16T10:31:52;16.92;;;14.30;;
13731;SDS011;6937;56.096;12.664;2024-02-16T10:34:17;17.48;;;14.68;;
13731;SDS011;6937;56.096;12.664;2024-02-16T10:36:43;18.80;;;15.38;;
13731;SDS011;6937;56.096;12.664;2024-02-16T10:39:10;17.30;;;14.18;;
13731;SDS011;6937;56.096;12.664;2024-02-16T10:41:40;17.98;;;14.43;;
13731;SDS011;6937;56.096;12.664;2024-02-16T10:44:07;18.27;;;14.50;;
13731;SDS011;6937;56.096;12.664;2024-02-16T10:46:33;18.00;;;14.52;;
13731;SDS011;6937;56.096;12.664;2024-02-16T10:48:59;17.65;;;14.50;;
13731;SDS011;6937;56.096;12.664;2024-02-16T10:51:29;15.80;;;14.20;;
13731;SDS011;6937;56.096;12.664;2024-02-16T10:53:55;14.93;;;13.40;;
13731;SDS011;6937;56.096;12.664;2024-02-16T10:56:26;15.38;;;13.77;;
13731;SDS011;6937;56.096;12.664;2024-02-16T10:59:04;17.05;;;13.75;;
13731;SDS011;6937;56.096;12.664;2024-02-16T11:01:37;15.55;;;13.95;;
13731;SDS011;6937;56.096;12.664;2024-02-16T11:04:04;14.68;;;13.23;;
13731;SDS011;6937;56.096;12.664;2024-02-16T11:06:43;15.15;;;13.38;;
13731;SDS011;6937;56.096;12.664;2024-02-16T11:09:29;14.77;;;13.20;;
13731;SDS011;6937;56.096;12.664;2024-02-16T11:11:59;13.73;;;12.27;;
13731;SDS011;6937;56.096;12.664;2024-02-16T11:14:42;13.45;;;11.90;;
13731;SDS011;6937;56.096;12.664;2024-02-16T11:17:14;14.70;;;12.90;;
13731;SDS011;6937;56.096;12.664;2024-02-16T11:19:44;14.38;;;12.35;;
13731;SDS011;6937;56.096;12.664;2024-02-16T11:22:10;15.07;;;12.25;;
13731;SDS011;6937;56.096;12.664;2024-02-16T11:24:44;14.43;;;12.70;;
13731;SDS011;6937;56.096;12.664;2024-02-16T11:27:11;13.90;;;12.50;;
13731;SDS011;6937;56.096;12.664;2024-02-16T11:29:38;13.43;;;12.02;;
13731;SDS011;6937;56.096;12.664;2024-02-16T11:32:04;13.50;;;12.07;;
13731;SDS011;6937;56.096;12.664;2024-02-16T11:34:30;14.43;;;11.38;;
13731;SDS011;6937;56.096;12.664;2024-02-16T11:36:57;12.23;;;10.70;;
13731;SDS011;6937;56.096;12.664;2024-02-16T11:39:23;14.07;;;11.35;;
13731;SDS011;6937;56.096;12.664;2024-02-16T11:42:03;12.57;;;11.40;;
13731;SDS011;6937;56.096;12.664;2024-02-16T11:44:30;16.35;;;11.57;;
13731;SDS011;6937;56.096;12.664;2024-02-16T11:46:57;13.10;;;11.07;;
13731;SDS011;6937;56.096;12.664;2024-02-16T11:49:22;14.82;;;11.32;;
13731;SDS011;6937;56.096;12.664;2024-02-16T11:51:48;12.38;;;11.07;;
13731;SDS011;6937;56.096;12.664;2024-02-16T11:54:13;12.70;;;11.40;;
13731;SDS011;6937;56.096;12.664;2024-02-16T11:56:41;12.63;;;11.27;;
13731;SDS011;6937;56.096;12.664;2024-02-16T11:59:11;13.35;;;10.93;;
13731;SDS011;6937;56.096;12.664;2024-02-16T12:01:47;11.93;;;10.73;;
13731;SDS011;6937;56.096;12.664;2024-02-16T12:04:29;11.13;;;10.02;;
13731;SDS011;6937;56.096;12.664;2024-02-16T12:06:56;11.68;;;10.57;;
13731;SDS011;6937;56.096;12.664;2024-02-16T12:09:23;12.50;;;10.15;;
13731;SDS011;6937;56.096;12.664;2024-02-16T12:11:50;10.75;;;9.60;;
13731;SDS011;6937;56.096;12.664;2024-02-16T12:14:16;11.88;;;9.85;;
13731;SDS011;6937;56.096;12.664;2024-02-16T12:16:42;13.82;;;9.77;;
13731;SDS011;6937;56.096;12.664;2024-02-16T12:19:12;11.95;;;9.13;;
13731;SDS011;6937;56.096;12.664;2024-02-16T12:21:38;10.30;;;9.30;;
13731;SDS011;6937;56.096;12.664;2024-02-16T12:24:03;9.57;;;8.43;;
13731;SDS011;6937;56.096;12.664;2024-02-16T12:26:29;10.40;;;8.77;;
13731;SDS011;6937;56.096;12.664;2024-02-16T12:28:54;12.07;;;8.77;;
13731;SDS011;6937;56.096;12.664;2024-02-16T12:31:20;9.60;;;8.20;;
13731;SDS011;6937;56.096;12.664;2024-02-16T12:33:46;11.82;;;9.65;;
13731;SDS011;6937;56.096;12.664;2024-02-16T12:36:12;9.57;;;8.50;;
13731;SDS011;6937;56.096;12.664;2024-02-16T12:38:37;9.43;;;8.43;;
13731;SDS011;6937;56.096;12.664;2024-02-16T12:41:03;10.32;;;8.18;;
13731;SDS011;6937;56.096;12.664;2024-02-16T12:43:29;9.70;;;8.70;;
13731;SDS011;6937;56.096;12.664;2024-02-16T12:45:54;9.20;;;8.23;;
13731;SDS011;6937;56.096;12.664;2024-02-16T12:48:20;9.50;;;8.27;;
13731;SDS011;6937;56.096;12.664;2024-02-16T12:50:45;10.63;;;7.97;;
13731;SDS011;6937;56.096;12.664;2024-02-16T12:53:12;9.45;;;7.95;;
13731;SDS011;6937;56.096;12.664;2024-02-16T12:55:37;8.93;;;8.02;;
13731;SDS011;6937;56.096;12.664;2024-02-16T12:58:03;9.10;;;8.20;;
13731;SDS011;6937;56.096;12.664;2024-02-16T13:00:28;9.20;;;8.20;;
13731;SDS011;6937;56.096;12.664;2024-02-16T13:02:54;10.38;;;8.38;;
13731;SDS011;6937;56.096;12.664;2024-02-16T13:05:19;9.63;;;7.82;;
13731;SDS011;6937;56.096;12.664;2024-02-16T13:07:45;10.43;;;8.27;;
13731;SDS011;6937;56.096;12.664;2024-02-16T13:10:10;10.25;;;8.25;;
13731;SDS011;6937;56.096;12.664;2024-02-16T13:12:36;8.23;;;7.43;;
13731;SDS011;6937;56.096;12.664;2024-02-16T13:15:03;12.45;;;8.95;;
13731;SDS011;6937;56.096;12.664;2024-02-16T13:17:31;11.23;;;9.05;;
13731;SDS011;6937;56.096;12.664;2024-02-16T13:19:58;9.77;;;8.85;;
13731;SDS011;6937;56.096;12.664;2024-02-16T13:22:31;12.15;;;9.25;;
13731;SDS011;6937;56.096;12.664;2024-02-16T13:24:57;13.30;;;9.40;;
13731;SDS011;6937;56.096;12.664;2024-02-16T13:27:22;11.10;;;9.20;;
13731;SDS011;6937;56.096;12.664;2024-02-16T13:29:48;10.93;;;9.07;;
13731;SDS011;6937;56.096;12.664;2024-02-16T13:32:13;10.77;;;9.20;;
13731;SDS011;6937;56.096;12.664;2024-02-16T13:34:38;9.70;;;8.70;;
13731;SDS011;6937;56.096;12.664;2024-02-16T13:37:04;11.15;;;8.35;;
13731;SDS011;6937;56.096;12.664;2024-02-16T13:39:30;9.77;;;7.97;;
13731;SDS011;6937;56.096;12.664;2024-02-16T13:41:55;9.65;;;8.23;;
13731;SDS011;6937;56.096;12.664;2024-02-16T13:44:22;11.43;;;8.35;;
13731;SDS011;6937;56.096;12.664;2024-02-16T13:46:48;12.32;;;8.55;;
13731;SDS011;6937;56.096;12.664;2024-02-16T13:49:14;12.05;;;8.48;;
13731;SDS011;6937;56.096;12.664;2024-02-16T13:51:40;10.35;;;7.70;;
13731;SDS011;6937;56.096;12.664;2024-02-16T13:54:06;11.95;;;8.20;;
13731;SDS011;6937;56.096;12.664;2024-02-16T13:56:31;13.57;;;9.20;;
13731;SDS011;6937;56.096;12.664;2024-02-16T13:58:57;9.45;;;8.02;;
13731;SDS011;6937;56.096;12.664;2024-02-16T14:01:22;12.00;;;8.65;;
13731;SDS011;6937;56.096;12.664;2024-02-16T14:03:49;10.48;;;8.30;;
13731;SDS011;6937;56.096;12.664;2024-02-16T14:06:16;10.52;;;8.15;;
13731;SDS011;6937;56.096;12.664;2024-02-16T14:08:41;8.95;;;7.82;;
13731;SDS011;6937;56.096;12.664;2024-02-16T14:11:06;9.27;;;7.90;;
13731;SDS011;6937;56.096;12.664;2024-02-16T14:13:33;9.65;;;7.50;;